createdAt,value
2022-08-20T00:02:16.674Z,97939.41
2022-08-20T00:04:45.709Z,97954.00
2022-08-20T00:07:14.585Z,97965.69
2022-08-20T00:09:43.198Z,97971.09
2022-08-20T00:12:12.567Z,97984.66
2022-08-20T00:14:41.237Z,97994.88
2022-08-20T00:17:11.103Z,98004.69
2022-08-20T00:19:39.567Z,98012.22
2022-08-20T00:22:08.029Z,98011.41
2022-08-20T00:24:36.503Z,98008.69
2022-08-20T00:27:05.145Z,98016.59
2022-08-20T00:29:33.597Z,98024.72
2022-08-20T00:32:02.229Z,98024.72
2022-08-20T00:34:32.084Z,98021.19
2022-08-20T00:37:00.526Z,98014.38
2022-08-20T00:39:29.009Z,98010.22
2022-08-20T00:41:57.474Z,98009.78
2022-08-20T00:44:25.894Z,98008.91
2022-08-20T00:46:54.993Z,98001.38
2022-08-20T00:49:25.932Z,98005.97
2022-08-20T00:51:58.766Z,97991.59
2022-08-20T00:54:31.348Z,97985.78
2022-08-20T00:57:03.585Z,97986.19
2022-08-20T00:59:35.135Z,97979.06
2022-08-20T01:02:03.734Z,97975.34
2022-08-20T01:04:34.173Z,97972.63
2022-08-20T01:07:05.409Z,97960.09
2022-08-20T01:09:57.628Z,97954.66
2022-08-20T01:12:23.752Z,97947.59
2022-08-20T01:14:52.207Z,97942.19
2022-08-20T01:17:23.615Z,97955.13
2022-08-20T01:19:55.844Z,97940.75
2022-08-20T01:22:43.842Z,97955.13
2022-08-20T01:25:32.596Z,97973.47
2022-08-20T01:28:02.604Z,97965.59
2022-08-20T01:30:31.051Z,97961.00
2022-08-20T01:32:59.665Z,97961.44
2022-08-20T01:35:28.078Z,97974.38
2022-08-20T01:37:57.069Z,97983.56
2022-08-20T01:40:52.064Z,97991.47
2022-08-20T01:43:22.113Z,97977.72
2022-08-20T01:45:53.021Z,97978.31
2022-08-20T01:48:22.013Z,97980.19
2022-08-20T01:50:57.044Z,97966.63
2022-08-20T01:53:29.724Z,97964.53
2022-08-20T01:55:58.296Z,97967.25
2022-08-20T01:58:29.745Z,97961.44
2022-08-20T02:00:58.561Z,97960.16
2022-08-20T02:03:27.155Z,97962.66
2022-08-20T02:05:55.692Z,97968.06
2022-08-20T02:08:24.771Z,97960.16
2022-08-20T02:10:53.272Z,97959.34
2022-08-20T02:13:21.977Z,97961.19
2022-08-20T02:15:51.995Z,97960.38
2022-08-20T02:18:21.019Z,97957.66
2022-08-20T02:20:49.798Z,97949.53
2022-08-20T02:23:18.902Z,97956.03
2022-08-20T02:25:48.493Z,97942.47
2022-08-20T02:28:19.816Z,97930.56
2022-08-20T02:30:51.747Z,97922.66
2022-08-20T02:33:22.341Z,97933.09
2022-08-20T02:35:53.425Z,97921.44
2022-08-20T02:38:22.173Z,97928.50
2022-08-20T02:40:50.698Z,97940.41
2022-08-20T02:43:20.243Z,97934.16
2022-08-20T02:45:48.751Z,97940.41
2022-08-20T02:48:21.115Z,97946.66
2022-08-20T02:50:52.371Z,97954.59
2022-08-20T02:53:20.843Z,97937.50
2022-08-20T02:55:49.459Z,97939.34
2022-08-20T02:58:18.019Z,97936.44
2022-08-20T03:00:46.789Z,97923.69
2022-08-20T03:03:15.673Z,97919.34
2022-08-20T03:05:46.132Z,97924.78
2022-08-20T03:08:15.000Z,97915.81
2022-08-20T03:10:44.819Z,97907.69
2022-08-20T03:13:13.614Z,97912.25
2022-08-20T03:15:43.801Z,97913.56
2022-08-20T03:18:12.320Z,97911.88
2022-08-20T03:20:41.190Z,97911.88
2022-08-20T03:23:11.043Z,97911.88
2022-08-20T03:25:39.495Z,97915.66
2022-08-20T03:28:07.958Z,97922.97
2022-08-20T03:30:36.450Z,97925.66
2022-08-20T03:33:05.207Z,97929.19
2022-08-20T03:35:34.042Z,97915.88
2022-08-20T03:38:02.526Z,97909.63
2022-08-20T03:40:34.378Z,97909.41
2022-08-20T03:43:03.066Z,97904.81
2022-08-20T03:45:32.687Z,97911.06
2022-08-20T03:48:01.742Z,97902.09
2022-08-20T03:50:31.900Z,97910.22
2022-08-20T03:53:00.673Z,97906.47
2022-08-20T03:55:30.150Z,97902.72
2022-08-20T03:58:03.127Z,97891.88
2022-08-20T04:00:35.640Z,97887.47
2022-08-20T04:03:04.788Z,97878.31
2022-08-20T04:05:34.639Z,97872.91
2022-08-20T04:08:03.649Z,97871.22
2022-08-20T04:10:32.303Z,97866.03
2022-08-20T04:13:02.198Z,97858.13
2022-08-20T04:15:32.459Z,97852.91
2022-08-20T04:18:01.065Z,97859.19
2022-08-20T04:20:29.515Z,97870.03
2022-08-20T04:22:59.369Z,97865.63
2022-08-20T04:25:29.689Z,97872.94
2022-08-20T04:27:59.092Z,97885.69
2022-08-20T04:30:29.312Z,97879.66
2022-08-20T04:32:59.558Z,97868.81
2022-08-20T04:35:28.602Z,97870.44
2022-08-20T04:38:01.120Z,97860.47
2022-08-20T04:40:47.729Z,97850.06
2022-08-20T04:43:16.298Z,97854.81
2022-08-20T04:45:47.213Z,97870.69
2022-08-20T04:48:15.782Z,97878.19
2022-08-20T04:50:47.092Z,97888.59
2022-08-20T04:53:21.660Z,97888.38
2022-08-20T04:55:53.561Z,97892.38
2022-08-20T04:58:27.422Z,97896.72
2022-08-20T05:01:01.160Z,97903.59
2022-08-20T05:03:30.334Z,97904.66
2022-08-20T05:05:59.016Z,97901.13
2022-08-20T05:08:27.614Z,97904.84
2022-08-20T05:11:06.592Z,97919.47
2022-08-20T05:13:44.866Z,97912.59
2022-08-20T05:16:15.374Z,97895.72
2022-08-20T05:18:44.684Z,97891.09
2022-08-20T05:21:20.675Z,97884.66
2022-08-20T05:23:49.614Z,97887.38
2022-08-20T05:26:20.444Z,97886.53
2022-08-20T05:28:58.035Z,97886.53
2022-08-20T05:31:31.863Z,97885.47
2022-08-20T05:34:07.068Z,97879.84
2022-08-20T05:36:35.480Z,97880.88
2022-08-20T05:39:04.225Z,97882.56
2022-08-20T05:41:32.647Z,97889.84
2022-08-20T05:44:01.963Z,97897.97
2022-08-20T05:46:32.341Z,97896.13
2022-08-20T05:49:01.985Z,97893.19
2022-08-20T05:51:30.867Z,97897.78
2022-08-20T05:53:59.935Z,97896.97
2022-08-20T05:56:31.324Z,97895.91
2022-08-20T05:59:02.602Z,97897.78
2022-08-20T06:01:32.686Z,97891.53
2022-08-20T06:04:18.793Z,97891.53
2022-08-20T06:06:47.745Z,97895.06
2022-08-20T06:09:31.099Z,97903.22
2022-08-20T06:12:02.341Z,97902.38
2022-08-20T06:14:31.430Z,97910.28
2022-08-20T06:17:06.530Z,97906.53
2022-08-20T06:19:35.766Z,97904.03
2022-08-20T06:22:18.407Z,97914.88
2022-08-20T06:24:53.028Z,97921.34
2022-08-20T06:27:21.495Z,97916.94
2022-08-20T06:29:50.149Z,97912.59
2022-08-20T06:32:32.158Z,97900.69
2022-08-20T06:35:03.735Z,97905.28
2022-08-20T06:37:33.049Z,97907.16
2022-08-20T06:40:02.767Z,97892.78
2022-08-20T06:42:31.322Z,97902.38
2022-08-20T06:45:04.725Z,97893.63
2022-08-20T06:47:34.845Z,97909.03
2022-08-20T06:50:03.342Z,97914.47
2022-08-20T06:52:52.438Z,97914.47
2022-08-20T06:55:20.663Z,97915.06
2022-08-20T06:57:49.369Z,97923.81
2022-08-20T07:00:21.076Z,97927.34
2022-08-20T07:02:50.929Z,97926.31
2022-08-20T07:05:19.627Z,97922.56
2022-08-20T07:07:49.672Z,97924.00
2022-08-20T07:10:19.732Z,97924.41
2022-08-20T07:12:50.175Z,97918.38
2022-08-20T07:15:19.814Z,97909.41
2022-08-20T07:17:52.228Z,97917.91
2022-08-20T07:20:21.173Z,97921.06
2022-08-20T07:22:49.860Z,97917.78
2022-08-20T07:25:20.300Z,97916.75
2022-08-20T07:27:49.499Z,97917.75
2022-08-20T07:30:56.757Z,97923.53
2022-08-20T07:33:28.567Z,97936.28
2022-08-20T07:35:58.028Z,97936.28
2022-08-20T07:38:30.276Z,97932.53
2022-08-20T07:41:00.711Z,97933.56
2022-08-20T07:43:29.720Z,97937.09
2022-08-20T07:46:00.871Z,97938.78
2022-08-20T07:48:32.455Z,97948.09
2022-08-20T07:51:03.720Z,97935.97
2022-08-20T07:53:35.631Z,97947.28
2022-08-20T07:56:07.016Z,97940.66
2022-08-20T07:58:38.452Z,97922.28
2022-08-20T08:01:07.815Z,97939.47
2022-08-20T08:03:40.762Z,97937.13
2022-08-20T08:06:29.684Z,97933.09
2022-08-20T08:09:01.608Z,97937.94
2022-08-20T08:11:30.105Z,97937.09
2022-08-20T08:13:58.605Z,97932.75
2022-08-20T08:16:27.053Z,97933.41
2022-08-20T08:18:58.528Z,97930.22
2022-08-20T08:21:27.074Z,97927.69
2022-08-20T08:23:56.213Z,97929.03
2022-08-20T08:26:25.871Z,97917.75
2022-08-20T08:28:54.749Z,97918.56
2022-08-20T08:31:25.605Z,97911.88
2022-08-20T08:33:54.136Z,97916.84
2022-08-20T08:36:27.118Z,97923.41
2022-08-20T08:38:56.849Z,97927.88
2022-08-20T08:41:32.610Z,97938.34
2022-08-20T08:44:05.856Z,97939.47
2022-08-20T08:46:37.113Z,97954.47
2022-08-20T08:49:05.831Z,97951.53
2022-08-20T08:51:39.810Z,97953.66
2022-08-20T08:54:08.366Z,97951.75
2022-08-20T08:56:37.854Z,97946.16
2022-08-20T08:59:08.812Z,97945.50
2022-08-20T09:01:55.465Z,97954.25
2022-08-20T09:04:25.818Z,97954.88
2022-08-20T09:06:55.797Z,97950.78
2022-08-20T09:09:27.435Z,97954.31
2022-08-20T09:12:05.672Z,97948.84
2022-08-20T09:14:34.245Z,97946.66
2022-08-20T09:17:02.829Z,97947.91
2022-08-20T09:19:31.339Z,97949.50
2022-08-20T09:22:01.231Z,97933.19
2022-08-20T09:24:30.017Z,97928.22
2022-08-20T09:26:58.538Z,97936.88
2022-08-20T09:29:27.125Z,97930.28
2022-08-20T09:32:06.453Z,97938.09
2022-08-20T09:34:38.141Z,97943.13
2022-08-20T09:37:08.021Z,97944.47
2022-08-20T09:39:37.195Z,97941.47
2022-08-20T09:42:11.204Z,97932.56
2022-08-20T09:44:40.051Z,97931.56
2022-08-20T09:47:08.705Z,97929.22
2022-08-20T09:49:37.422Z,97916.78
2022-08-20T09:52:09.480Z,97922.66
2022-08-20T09:54:38.621Z,97913.34
2022-08-20T09:57:13.774Z,97925.81
2022-08-20T09:59:42.408Z,97929.41
2022-08-20T10:02:11.344Z,97925.91
2022-08-20T10:04:40.216Z,97929.47
2022-08-20T10:07:11.315Z,97924.81
2022-08-20T10:09:39.865Z,97924.19
2022-08-20T10:12:09.260Z,97911.28
2022-08-20T10:14:38.158Z,97917.44
2022-08-20T10:17:06.827Z,97917.97
2022-08-20T10:19:35.408Z,97903.66
2022-08-20T10:22:03.911Z,97900.41
2022-08-20T10:24:33.730Z,97898.44
2022-08-20T10:27:02.916Z,97894.75
2022-08-20T10:29:32.023Z,97907.34
2022-08-20T10:32:12.268Z,97908.34
2022-08-20T10:34:41.308Z,97907.44
2022-08-20T10:37:10.344Z,97917.44
2022-08-20T10:39:40.307Z,97910.75
2022-08-20T10:42:08.955Z,97911.56
2022-08-20T10:44:37.463Z,97902.94
2022-08-20T10:47:20.125Z,97899.25
2022-08-20T10:49:49.173Z,97903.66
2022-08-20T10:52:17.728Z,97907.81
2022-08-20T10:54:47.733Z,97916.56
2022-08-20T10:57:17.912Z,97921.56
2022-08-20T10:59:47.870Z,97930.94
2022-08-20T11:02:16.836Z,97934.22
2022-08-20T11:04:45.494Z,97930.03
2022-08-20T11:07:16.609Z,97934.56
2022-08-20T11:09:45.276Z,97925.19
2022-08-20T11:12:15.080Z,97922.91
2022-08-20T11:14:43.693Z,97920.31
2022-08-20T11:17:12.203Z,97921.50
2022-08-20T11:19:41.679Z,97926.09
2022-08-20T11:22:10.548Z,97915.81
2022-08-20T11:24:39.586Z,97908.34
2022-08-20T11:27:08.838Z,97910.03
2022-08-20T11:29:39.690Z,97912.59
2022-08-20T11:32:10.714Z,97921.09
2022-08-20T11:34:39.197Z,97921.81
2022-08-20T11:37:07.720Z,97916.50
2022-08-20T11:39:39.850Z,97914.47
2022-08-20T11:42:11.397Z,97909.63
2022-08-20T11:44:41.274Z,97911.06
2022-08-20T11:47:09.792Z,97918.56
2022-08-20T11:49:38.587Z,97913.50
2022-08-20T11:52:07.690Z,97912.69
2022-08-20T11:54:40.527Z,97890.72
2022-08-20T11:57:09.266Z,97892.09
2022-08-20T11:59:37.778Z,97908.84
2022-08-20T12:02:12.138Z,97899.41
2022-08-20T12:04:41.037Z,97892.28
2022-08-20T12:07:11.336Z,97876.38
2022-08-20T12:09:40.042Z,97874.03
2022-08-20T12:12:15.867Z,97884.03
2022-08-20T12:14:44.450Z,97881.19
2022-08-20T12:17:17.802Z,97880.31
2022-08-20T12:19:46.536Z,97870.50
2022-08-20T12:22:23.091Z,97875.63
2022-08-20T12:24:54.428Z,97879.75
2022-08-20T12:27:25.005Z,97865.78
2022-08-20T12:29:54.656Z,97874.09
2022-08-20T12:32:26.278Z,97864.13
2022-08-20T12:34:55.067Z,97863.41
2022-08-20T12:37:24.762Z,97868.63
2022-08-20T12:40:00.470Z,97868.91
2022-08-20T12:42:30.655Z,97865.63
2022-08-20T12:44:59.460Z,97881.41
2022-08-20T12:47:31.120Z,97890.59
2022-08-20T12:50:01.538Z,97903.34
2022-08-20T12:52:31.017Z,97900.34
2022-08-20T12:54:59.842Z,97890.13
2022-08-20T12:57:32.217Z,97888.75
2022-08-20T13:00:03.826Z,97887.56
2022-08-20T13:02:34.831Z,97892.84
2022-08-20T13:05:05.216Z,97895.88
2022-08-20T13:07:34.095Z,97906.16
2022-08-20T13:10:02.603Z,97919.28
2022-08-20T13:12:31.138Z,97926.47
2022-08-20T13:15:00.033Z,97951.00
2022-08-20T13:17:38.997Z,97948.69
2022-08-20T13:20:17.081Z,97945.28
2022-08-20T13:22:45.463Z,97964.78
2022-08-20T13:25:14.535Z,97982.41
2022-08-20T13:27:43.647Z,97977.78
2022-08-20T13:30:14.864Z,97980.28
2022-08-20T13:32:43.419Z,97976.31
2022-08-20T13:35:13.542Z,97980.06
2022-08-20T13:37:42.505Z,97974.88
2022-08-20T13:40:12.836Z,97973.84
2022-08-20T13:42:41.405Z,97970.06
2022-08-20T13:45:11.232Z,97961.34
2022-08-20T13:47:42.715Z,97951.63
2022-08-20T13:50:15.409Z,97964.78
2022-08-20T13:52:44.442Z,97964.09
2022-08-20T13:55:17.578Z,97971.50
2022-08-20T13:57:47.311Z,97972.59
2022-08-20T14:00:18.431Z,97992.19
2022-08-20T14:02:47.073Z,98001.75
2022-08-20T14:05:18.410Z,98012.28
2022-08-20T14:07:48.217Z,97997.03
2022-08-20T14:10:18.768Z,98001.56
2022-08-20T14:12:48.395Z,98006.75
2022-08-20T14:15:17.300Z,98001.53
2022-08-20T14:17:51.635Z,97997.38
2022-08-20T14:20:23.381Z,97992.59
2022-08-20T14:22:51.923Z,97992.78
2022-08-20T14:25:21.626Z,97995.69
2022-08-20T14:27:50.642Z,97996.53
2022-08-20T14:30:21.325Z,97992.78
2022-08-20T14:32:50.018Z,97996.53
2022-08-20T14:35:18.724Z,97986.56
2022-08-20T14:37:52.134Z,97989.25
2022-08-20T14:40:22.285Z,97992.16
2022-08-20T14:42:51.571Z,97988.84
2022-08-20T14:45:23.466Z,97976.75
2022-08-20T14:47:54.337Z,97979.47
2022-08-20T14:50:25.518Z,97976.34
2022-08-20T14:52:55.809Z,97963.16
2022-08-20T14:55:27.378Z,97959.47
2022-08-20T14:57:56.055Z,97951.56
2022-08-20T15:00:26.773Z,97952.03
2022-08-20T15:02:55.665Z,97947.47
2022-08-20T15:05:24.789Z,97934.13
2022-08-20T15:07:54.638Z,97925.84
2022-08-20T15:10:25.516Z,97921.84
2022-08-20T15:12:54.001Z,97919.16
2022-08-20T15:15:23.000Z,97909.78
2022-08-20T15:17:53.775Z,97904.44
2022-08-20T15:20:25.741Z,97890.97
2022-08-20T15:22:55.756Z,97899.28
2022-08-20T15:25:25.923Z,97888.06
2022-08-20T15:28:00.652Z,97884.56
2022-08-20T15:30:31.324Z,97893.47
2022-08-20T15:33:00.360Z,97888.81
2022-08-20T15:35:29.525Z,97879.91
2022-08-20T15:38:00.612Z,97879.91
2022-08-20T15:40:31.033Z,97874.22
2022-08-20T15:43:00.008Z,97877.31
2022-08-20T15:45:28.562Z,97866.09
2022-08-20T15:48:02.672Z,97872.34
2022-08-20T15:51:01.791Z,97867.38
2022-08-20T15:53:36.455Z,97868.81
2022-08-20T15:56:10.358Z,97881.88
2022-08-20T15:58:48.632Z,97880.81
2022-08-20T16:01:26.145Z,97876.22
2022-08-20T16:04:17.889Z,97872.50
2022-08-20T16:06:46.386Z,97875.84
2022-08-20T16:09:38.106Z,97892.91
2022-08-20T16:12:10.325Z,97886.88
2022-08-20T16:14:40.527Z,97879.56
2022-08-20T16:17:10.845Z,97879.78
2022-08-20T16:19:49.198Z,97880.88
2022-08-20T16:22:19.003Z,97865.66
2022-08-20T16:24:48.974Z,97864.41
2022-08-20T16:27:25.433Z,97873.22
2022-08-20T16:29:58.633Z,97871.13
2022-08-20T16:32:39.533Z,97879.66
2022-08-20T16:35:31.986Z,97885.44
2022-08-20T16:38:11.367Z,97883.34
2022-08-20T16:40:49.503Z,97885.78
2022-08-20T16:43:24.625Z,97885.78
2022-08-20T16:45:56.521Z,97878.19
2022-08-20T16:48:26.473Z,97881.91
2022-08-20T16:51:00.006Z,97884.41
2022-08-20T16:53:28.539Z,97884.41
2022-08-20T16:55:58.604Z,97895.00
2022-08-20T16:58:27.073Z,97897.25
2022-08-20T17:01:11.598Z,97904.09
2022-08-20T17:03:41.007Z,97902.22
2022-08-20T17:06:19.259Z,97902.22
2022-08-20T17:08:50.629Z,97906.44
2022-08-20T17:11:29.121Z,97899.16
2022-08-20T17:14:10.474Z,97901.69
2022-08-20T17:16:43.348Z,97916.44
2022-08-20T17:19:19.751Z,97916.88
2022-08-20T17:21:49.849Z,97928.72
2022-08-20T17:24:26.134Z,97926.63
2022-08-20T17:27:01.971Z,97922.31
2022-08-20T17:29:31.925Z,97923.31
2022-08-20T17:32:02.581Z,97916.50
2022-08-20T17:34:32.755Z,97924.63
2022-08-20T17:37:03.916Z,97931.25
2022-08-20T17:39:32.630Z,97934.16
2022-08-20T17:42:09.053Z,97935.44
2022-08-20T17:44:42.390Z,97942.72
2022-08-20T17:47:15.445Z,97945.41
2022-08-20T17:49:57.451Z,97950.00
2022-08-20T17:52:42.343Z,97941.88
2022-08-20T17:55:10.840Z,97940.81
2022-08-20T17:57:42.189Z,97949.38
2022-08-20T18:00:14.503Z,97958.28
2022-08-20T18:02:43.291Z,97949.56
2022-08-20T18:05:15.816Z,97946.59
2022-08-20T18:07:49.956Z,97939.94
2022-08-20T18:10:21.757Z,97942.69
2022-08-20T18:12:58.042Z,97938.34
2022-08-20T18:15:28.357Z,97934.00
2022-08-20T18:18:18.423Z,97932.13
2022-08-20T18:21:25.198Z,97927.53
2022-08-20T18:23:56.542Z,97930.06
2022-08-20T18:26:27.905Z,97924.00
2022-08-20T18:28:59.545Z,97916.53
2022-08-20T18:31:30.195Z,97927.16
2022-08-20T18:33:58.808Z,97930.69
2022-08-20T18:36:28.995Z,97928.41
2022-08-20T18:39:02.212Z,97910.03
2022-08-20T18:41:32.710Z,97918.84
2022-08-20T18:44:09.225Z,97923.44
2022-08-20T18:46:38.124Z,97934.00
2022-08-20T18:49:08.616Z,97942.19
2022-08-20T18:51:41.013Z,97948.00
2022-08-20T18:54:09.507Z,97941.13
2022-08-20T18:56:41.350Z,97943.69
2022-08-20T18:59:16.695Z,97954.69
2022-08-20T19:01:47.314Z,97966.78
2022-08-20T19:04:33.812Z,97967.59
2022-08-20T19:07:04.757Z,97970.09
2022-08-20T19:09:57.279Z,97974.06
2022-08-20T19:12:54.825Z,97978.59
2022-08-20T19:15:26.836Z,97965.91
2022-08-20T19:18:02.024Z,97969.03
2022-08-20T19:20:32.879Z,97977.34
2022-08-20T19:23:06.797Z,97968.81
2022-08-20T19:25:39.798Z,97966.94
2022-08-20T19:28:18.303Z,97957.16
2022-08-20T19:30:48.096Z,97949.06
2022-08-20T19:33:25.881Z,97947.59
2022-08-20T19:36:13.939Z,97940.97
2022-08-20T19:38:50.049Z,97948.84
2022-08-20T19:41:30.908Z,97950.94
2022-08-20T19:44:01.314Z,97949.69
2022-08-20T19:46:35.030Z,97951.78
2022-08-20T19:49:19.801Z,97938.47
2022-08-20T19:51:57.196Z,97937.06
2022-08-20T19:54:28.872Z,97932.25
2022-08-20T19:56:57.679Z,97940.19
2022-08-20T19:59:26.381Z,97929.38
2022-08-20T20:02:00.387Z,97936.25
2022-08-20T20:04:30.036Z,97936.44
2022-08-20T20:06:59.161Z,97926.88
2022-08-20T20:09:29.554Z,97917.31
2022-08-20T20:12:00.391Z,97935.63
2022-08-20T20:14:33.482Z,97934.38
2022-08-20T20:17:05.797Z,97925.78
2022-08-20T20:19:46.909Z,97920.59
2022-08-20T20:22:19.978Z,97919.97
2022-08-20T20:24:51.324Z,97924.13
2022-08-20T20:27:23.291Z,97931.84
2022-08-20T20:29:52.311Z,97927.03
2022-08-20T20:32:24.448Z,97923.09
2022-08-20T20:34:56.074Z,97921.88
2022-08-20T20:37:49.903Z,97917.91
2022-08-20T20:40:25.770Z,97919.34
2022-08-20T20:43:03.127Z,97917.03
2022-08-20T20:45:35.139Z,97925.81
2022-08-20T20:48:14.111Z,97914.38
2022-08-20T20:50:42.840Z,97916.00
2022-08-20T20:53:11.464Z,97926.00
2022-08-20T20:55:42.813Z,97916.41
2022-08-20T20:58:11.338Z,97922.44
2022-08-20T21:00:40.141Z,97920.53
2022-08-20T21:03:10.119Z,97917.03
2022-08-20T21:05:38.728Z,97922.44
2022-08-20T21:08:09.431Z,97926.19
2022-08-20T21:10:41.122Z,97918.28
2022-08-20T21:13:10.669Z,97921.38
2022-08-20T21:15:39.504Z,97921.81
2022-08-20T21:18:10.106Z,97920.34
2022-08-20T21:20:38.611Z,97922.47
2022-08-20T21:23:07.147Z,97924.13
2022-08-20T21:25:35.725Z,97924.50
2022-08-20T21:28:05.503Z,97922.66
2022-08-20T21:30:34.321Z,97912.06
2022-08-20T21:33:02.883Z,97913.75
2022-08-20T21:35:33.011Z,97908.53
2022-08-20T21:38:01.483Z,97902.97
2022-08-20T21:40:30.035Z,97913.59
2022-08-20T21:42:59.519Z,97924.84
2022-08-20T21:45:29.245Z,97916.13
2022-08-20T21:47:58.237Z,97910.28
2022-08-20T21:50:27.312Z,97904.44
2022-08-20T21:53:12.257Z,97895.66
2022-08-20T21:55:41.633Z,97901.69
2022-08-20T21:58:10.557Z,97895.84
2022-08-20T22:00:55.980Z,97881.94
2022-08-20T22:03:26.751Z,97873.63
2022-08-20T22:05:55.427Z,97866.38
2022-08-20T22:08:28.291Z,97865.75
2022-08-20T22:10:57.926Z,97865.56
2022-08-20T22:13:28.333Z,97859.53
2022-08-20T22:15:56.960Z,97871.41
2022-08-20T22:18:25.580Z,97872.22
2022-08-20T22:20:54.626Z,97879.91
2022-08-20T22:23:24.495Z,97878.22
2022-08-20T22:25:52.984Z,97878.06
2022-08-20T22:28:21.968Z,97866.63
2022-08-20T22:30:50.407Z,97870.56
2022-08-20T22:33:23.340Z,97873.91
2022-08-20T22:35:54.912Z,97877.19
2022-08-20T22:38:24.964Z,97883.03
2022-08-20T22:40:54.187Z,97880.81
2022-08-20T22:43:23.274Z,97881.22
2022-08-20T22:45:53.730Z,97878.72
2022-08-20T22:48:22.722Z,97875.44
2022-08-20T22:50:51.295Z,97875.00
2022-08-20T22:53:20.109Z,97867.09
2022-08-20T22:55:50.051Z,97859.41
2022-08-20T22:58:18.824Z,97858.16
2022-08-20T23:00:59.255Z,97861.72
2022-08-20T23:03:40.131Z,97860.03
2022-08-20T23:06:09.261Z,97868.97
2022-08-20T23:08:38.148Z,97875.66
2022-08-20T23:11:08.144Z,97881.84
2022-08-20T23:13:36.606Z,97875.84
2022-08-20T23:16:05.542Z,97888.72
2022-08-20T23:18:34.250Z,97882.25
2022-08-20T23:21:02.678Z,97886.56
2022-08-20T23:23:31.633Z,97878.88
2022-08-20T23:26:00.183Z,97881.16
2022-08-20T23:28:30.097Z,97875.53
2022-08-20T23:30:58.797Z,97883.22
2022-08-20T23:33:27.233Z,97891.34
2022-08-20T23:35:55.696Z,97883.81
2022-08-20T23:38:24.116Z,97885.50
2022-08-20T23:40:52.672Z,97878.66
2022-08-20T23:43:21.156Z,97876.38
2022-08-20T23:45:51.111Z,97865.31
2022-08-20T23:48:19.525Z,97879.47
2022-08-20T23:50:48.066Z,97871.59
2022-08-20T23:53:16.516Z,97873.91
2022-08-20T23:55:45.147Z,97863.91
2022-08-20T23:58:13.676Z,97864.53
